createdAt,value
2023-02-21T06:03:05.053Z,25.00
2023-02-21T06:04:05.101Z,25.00
2023-02-21T06:05:05.065Z,25.00
2023-02-21T06:06:05.121Z,25.00
2023-02-21T06:07:05.149Z,25.00
2023-02-21T06:08:04.186Z,25.00
2023-02-21T06:09:05.217Z,0.00
2023-02-21T06:10:04.239Z,0.00
2023-02-21T06:11:05.232Z,0.00
2023-02-21T06:12:04.265Z,0.00
2023-02-21T06:13:05.295Z,0.00
2023-02-21T06:14:04.374Z,0.00
2023-02-21T06:15:05.428Z,0.00
2023-02-21T06:16:05.538Z,0.00
2023-02-21T06:17:05.539Z,0.00
2023-02-21T06:18:04.581Z,0.00
2023-02-21T06:19:05.650Z,0.00
2023-02-21T06:20:05.675Z,9.13
2023-02-21T06:21:05.732Z,26.85
2023-02-21T06:22:04.769Z,25.00
2023-02-21T06:23:05.813Z,25.00
2023-02-21T06:24:05.862Z,25.67
2023-02-21T06:25:04.904Z,28.13
2023-02-21T06:26:05.936Z,26.07
2023-02-21T06:27:05.988Z,30.76
2023-02-21T06:28:05.011Z,30.13
2023-02-21T06:29:05.061Z,26.74
2023-02-21T06:30:05.147Z,25.00
2023-02-21T06:31:06.192Z,31.66
2023-02-21T06:32:06.280Z,28.50
2023-02-21T06:33:06.230Z,29.25
2023-02-21T06:34:06.268Z,28.74
2023-02-21T06:35:06.361Z,34.53
2023-02-21T06:36:05.364Z,32.08
2023-02-21T06:37:06.396Z,30.50
2023-02-21T06:38:06.445Z,28.30
2023-02-21T06:39:05.466Z,27.67
2023-02-21T06:40:05.519Z,32.01
2023-02-21T06:41:06.548Z,26.73
2023-02-21T06:42:06.598Z,31.55
2023-02-21T06:43:06.612Z,30.78
2023-02-21T06:44:06.687Z,33.82
2023-02-21T06:45:05.679Z,25.22
2023-02-21T06:46:06.759Z,25.82
2023-02-21T06:47:06.763Z,29.77
2023-02-21T06:48:06.785Z,31.35
2023-02-21T06:49:06.830Z,30.01
2023-02-21T06:50:09.831Z,35.20
2023-02-21T06:51:06.892Z,31.58
2023-02-21T06:52:06.864Z,28.77
2023-02-21T06:53:06.835Z,31.74
2023-02-21T06:54:06.851Z,30.44
2023-02-21T06:55:06.883Z,30.31
2023-02-21T06:56:05.818Z,28.51
2023-02-21T06:57:13.159Z,27.91
2023-02-21T06:58:06.807Z,28.22
2023-02-21T06:59:06.807Z,29.13
2023-02-21T07:00:06.816Z,28.96
2023-02-21T07:01:06.780Z,26.33
2023-02-21T07:02:06.771Z,27.63
2023-02-21T07:03:07.172Z,31.20
2023-02-21T07:04:06.765Z,28.43
2023-02-21T07:05:06.784Z,29.64
2023-02-21T07:06:06.746Z,25.34
2023-02-21T07:07:06.780Z,27.25
2023-02-21T07:08:06.734Z,27.93
2023-02-21T07:09:05.723Z,30.58
2023-02-21T07:10:06.732Z,30.84
2023-02-21T07:11:06.724Z,27.68
2023-02-21T07:12:06.734Z,31.89
2023-02-21T07:13:06.719Z,32.04
2023-02-21T07:14:06.703Z,29.01
2023-02-21T07:15:06.686Z,30.39
2023-02-21T07:16:06.798Z,30.84
2023-02-21T07:17:05.687Z,29.68
2023-02-21T07:18:06.681Z,33.47
2023-02-21T07:19:05.670Z,30.95
2023-02-21T07:20:06.652Z,32.81
2023-02-21T07:21:05.656Z,37.89
2023-02-21T07:22:06.689Z,35.36
2023-02-21T07:23:05.745Z,38.11
2023-02-21T07:24:05.751Z,35.27
2023-02-21T07:25:06.795Z,39.56
2023-02-21T07:26:06.816Z,37.63
2023-02-21T07:27:06.835Z,40.40
2023-02-21T07:28:05.872Z,42.43
2023-02-21T07:29:06.955Z,35.59
2023-02-21T07:30:06.974Z,39.32
2023-02-21T07:31:07.002Z,37.83
2023-02-21T07:32:07.019Z,38.09
2023-02-21T07:33:06.026Z,37.96
2023-02-21T07:34:07.056Z,37.49
2023-02-21T07:35:07.098Z,37.05
2023-02-21T07:36:07.103Z,35.94
2023-02-21T07:37:07.130Z,40.85
2023-02-21T07:38:07.169Z,36.02
2023-02-21T07:39:06.192Z,34.91
2023-02-21T07:40:07.208Z,36.87
2023-02-21T07:41:07.237Z,39.06
2023-02-21T07:42:07.249Z,39.78
2023-02-21T07:43:06.249Z,37.51
2023-02-21T07:44:06.280Z,40.18
2023-02-21T07:45:07.294Z,41.85
2023-02-21T07:46:07.367Z,42.62
2023-02-21T07:47:07.385Z,41.98
2023-02-21T07:48:06.364Z,38.85
2023-02-21T07:49:07.373Z,40.55
2023-02-21T07:50:07.393Z,37.42
2023-02-21T07:51:07.436Z,42.57
2023-02-21T07:52:07.700Z,41.66
2023-02-21T07:53:08.669Z,46.28
2023-02-21T07:54:07.453Z,44.77
2023-02-21T07:55:06.465Z,48.79
2023-02-21T07:56:07.442Z,50.72
2023-02-21T07:57:07.456Z,53.64
2023-02-21T07:58:07.686Z,49.78
2023-02-21T07:59:07.438Z,53.88
2023-02-21T08:00:07.429Z,51.81
2023-02-21T08:01:07.418Z,51.60
2023-02-21T08:02:07.404Z,51.06
2023-02-21T08:03:06.389Z,50.82
2023-02-21T08:04:07.404Z,51.13
2023-02-21T08:05:07.419Z,51.38
2023-02-21T08:06:07.375Z,49.87
2023-02-21T08:07:07.385Z,50.67
2023-02-21T08:08:07.358Z,51.34
2023-02-21T08:09:07.351Z,52.98
2023-02-21T08:10:06.345Z,55.57
2023-02-21T08:11:07.396Z,56.95
2023-02-21T08:12:07.341Z,57.43
2023-02-21T08:13:07.310Z,59.44
2023-02-21T08:14:07.317Z,58.22
2023-02-21T08:15:07.298Z,61.91
2023-02-21T08:16:07.330Z,61.24
2023-02-21T08:17:07.305Z,61.33
2023-02-21T08:18:07.272Z,59.05
2023-02-21T08:19:07.261Z,60.84
2023-02-21T08:20:06.265Z,61.25
2023-02-21T08:21:07.262Z,61.15
2023-02-21T08:22:06.253Z,61.01
2023-02-21T08:23:06.259Z,58.27
2023-02-21T08:24:07.239Z,58.28
2023-02-21T08:25:07.234Z,60.12
2023-02-21T08:26:07.222Z,55.94
2023-02-21T08:27:07.239Z,63.07
2023-02-21T08:28:07.210Z,63.72
2023-02-21T08:29:07.207Z,62.01
2023-02-21T08:30:07.223Z,61.25
2023-02-21T08:31:07.246Z,62.71
2023-02-21T08:32:06.254Z,60.70
2023-02-21T08:33:07.183Z,61.48
2023-02-21T08:34:07.170Z,62.61
2023-02-21T08:35:07.167Z,58.20
2023-02-21T08:36:06.166Z,62.71
2023-02-21T08:37:07.164Z,58.87
2023-02-21T08:38:07.134Z,58.56
2023-02-21T08:39:07.144Z,57.76
2023-02-21T08:40:07.131Z,56.03
2023-02-21T08:41:07.131Z,54.33
2023-02-21T08:42:07.131Z,57.07
2023-02-21T08:43:07.166Z,58.71
2023-02-21T08:44:07.097Z,58.18
2023-02-21T08:45:07.105Z,59.15
2023-02-21T08:46:06.087Z,61.20
2023-02-21T08:47:07.085Z,61.04
2023-02-21T08:48:06.203Z,54.45
2023-02-21T08:49:07.066Z,56.37
2023-02-21T08:50:07.072Z,54.42
2023-02-21T08:51:07.057Z,50.25
2023-02-21T08:52:07.048Z,48.48
2023-02-21T08:53:06.191Z,62.97
2023-02-21T08:54:07.052Z,56.74
2023-02-21T08:55:07.052Z,45.42
2023-02-21T08:56:07.046Z,49.89
2023-02-21T08:57:07.036Z,51.27
2023-02-21T08:58:06.041Z,50.79
2023-02-21T08:59:07.054Z,53.78
2023-02-21T09:00:06.010Z,55.29
2023-02-21T09:01:07.089Z,51.09
2023-02-21T09:02:07.035Z,50.75
2023-02-21T09:03:05.991Z,47.51
2023-02-21T09:04:05.979Z,49.54
2023-02-21T09:05:06.958Z,51.42
2023-02-21T09:06:06.961Z,48.08
2023-02-21T09:07:06.974Z,43.83
2023-02-21T09:08:06.960Z,55.76
2023-02-21T09:09:06.929Z,53.97
2023-02-21T09:10:06.924Z,52.39
2023-02-21T09:11:06.982Z,47.93
2023-02-21T09:12:06.911Z,44.66
2023-02-21T09:13:06.933Z,46.64
2023-02-21T09:14:06.895Z,46.41
2023-02-21T09:15:06.946Z,41.81
2023-02-21T09:16:06.977Z,36.06
2023-02-21T09:17:06.881Z,33.60
2023-02-21T09:18:06.870Z,35.01
2023-02-21T09:19:06.907Z,29.07
2023-02-21T09:20:06.869Z,26.26
2023-02-21T09:21:05.859Z,27.08
2023-02-21T09:22:06.846Z,24.18
2023-02-21T09:23:06.846Z,27.34
2023-02-21T09:24:06.841Z,25.00
2023-02-21T09:25:06.886Z,33.95
2023-02-21T09:26:06.909Z,25.00
2023-02-21T09:27:06.958Z,28.85
2023-02-21T09:28:06.997Z,25.99
2023-02-21T09:29:07.016Z,30.14
2023-02-21T09:30:07.126Z,29.96
2023-02-21T09:31:06.125Z,25.33
2023-02-21T09:32:07.212Z,25.00
2023-02-21T09:33:07.170Z,26.22
2023-02-21T09:34:07.184Z,33.37
2023-02-21T09:35:06.214Z,25.00
2023-02-21T09:36:06.234Z,33.12
2023-02-21T09:37:07.282Z,25.56
2023-02-21T09:38:07.318Z,32.41
2023-02-21T09:39:07.270Z,31.19
2023-02-21T09:40:07.303Z,29.73
2023-02-21T09:41:06.430Z,27.75
2023-02-21T09:42:07.403Z,33.00
2023-02-21T09:43:07.401Z,36.99
2023-02-21T09:44:07.412Z,45.10
2023-02-21T09:45:07.397Z,29.84
2023-02-21T09:46:07.557Z,27.63
2023-02-21T09:47:06.441Z,28.52
2023-02-21T09:48:07.420Z,32.44
2023-02-21T09:49:07.433Z,26.47
2023-02-21T09:50:07.447Z,28.77
2023-02-21T09:51:07.447Z,36.06
2023-02-21T09:52:07.505Z,36.42
2023-02-21T09:53:07.490Z,42.51
2023-02-21T09:54:06.504Z,42.77
2023-02-21T09:55:07.514Z,50.91
2023-02-21T09:56:07.524Z,46.16
2023-02-21T09:57:06.566Z,45.79
2023-02-21T09:58:06.738Z,46.18
2023-02-21T09:59:07.555Z,47.27
2023-02-21T10:00:07.574Z,47.92
2023-02-21T10:01:07.594Z,45.27
2023-02-21T10:02:07.580Z,42.30
2023-02-21T10:03:07.687Z,42.80
2023-02-21T10:04:06.609Z,41.90
2023-02-21T10:05:06.645Z,40.87
2023-02-21T10:06:06.685Z,39.18
2023-02-21T10:07:07.735Z,39.86
2023-02-21T10:08:07.777Z,41.79
2023-02-21T10:09:06.823Z,41.05
2023-02-21T10:10:07.862Z,41.86
2023-02-21T10:11:07.908Z,35.11
2023-02-21T10:12:07.932Z,36.87
2023-02-21T10:13:07.967Z,31.95
2023-02-21T10:14:06.975Z,36.30
2023-02-21T10:15:08.029Z,31.35
2023-02-21T10:16:08.087Z,38.09
2023-02-21T10:17:08.084Z,31.30
2023-02-21T10:18:08.119Z,33.65
2023-02-21T10:19:08.165Z,30.85
2023-02-21T10:20:07.195Z,27.48
2023-02-21T10:21:08.240Z,27.76
2023-02-21T10:22:08.300Z,26.33
2023-02-21T10:23:07.354Z,26.13
2023-02-21T10:24:08.421Z,27.91
2023-02-21T10:25:07.473Z,25.82
2023-02-21T10:26:07.528Z,25.86
2023-02-21T10:27:07.583Z,26.36
2023-02-21T10:28:07.651Z,26.06
2023-02-21T10:29:08.713Z,27.32
2023-02-21T10:30:08.809Z,25.12
2023-02-21T10:31:08.905Z,29.48
2023-02-21T10:32:08.994Z,27.58
2023-02-21T10:33:08.915Z,27.00
2023-02-21T10:34:08.970Z,25.72
2023-02-21T10:35:08.037Z,27.44
2023-02-21T10:36:09.059Z,27.27
2023-02-21T10:37:08.128Z,28.57
2023-02-21T10:38:08.166Z,27.48
2023-02-21T10:39:09.202Z,30.50
2023-02-21T10:40:09.366Z,26.27
2023-02-21T10:41:09.275Z,32.49
2023-02-21T10:42:09.296Z,29.65
2023-02-21T10:43:09.338Z,30.98
2023-02-21T10:44:09.394Z,39.13
2023-02-21T10:45:09.454Z,38.24
2023-02-21T10:46:09.584Z,56.76
2023-02-21T10:47:09.591Z,71.30
2023-02-21T10:48:09.754Z,70.49
2023-02-21T10:49:09.656Z,70.16
2023-02-21T10:50:09.694Z,68.64
2023-02-21T10:51:08.692Z,66.91
2023-02-21T10:52:09.717Z,62.18
2023-02-21T10:53:09.893Z,64.79
2023-02-21T10:54:09.698Z,59.59
2023-02-21T10:55:11.879Z,60.46
2023-02-21T10:56:09.723Z,60.51
2023-02-21T10:57:08.703Z,60.74
2023-02-21T10:58:09.737Z,60.76
2023-02-21T10:59:09.699Z,61.89
2023-02-21T11:00:09.699Z,60.91
2023-02-21T11:01:09.706Z,60.40
2023-02-21T11:02:08.680Z,61.58
2023-02-21T11:03:09.683Z,61.44
2023-02-21T11:04:08.673Z,60.50
2023-02-21T11:05:09.658Z,59.76
2023-02-21T11:06:08.690Z,63.55
2023-02-21T11:07:08.702Z,59.07
2023-02-21T11:08:09.655Z,60.11
2023-02-21T11:09:09.632Z,59.15
2023-02-21T11:10:09.634Z,63.52
2023-02-21T11:11:09.634Z,68.22
2023-02-21T11:12:09.629Z,57.26
2023-02-21T11:13:08.617Z,59.38
2023-02-21T11:14:09.621Z,58.07
2023-02-21T11:15:09.594Z,59.60
2023-02-21T11:16:09.706Z,55.52
2023-02-21T11:17:09.597Z,56.54
2023-02-21T11:18:08.579Z,54.43
2023-02-21T11:19:09.587Z,53.62
2023-02-21T11:20:08.555Z,59.89
2023-02-21T11:21:09.571Z,59.54
2023-02-21T11:22:08.583Z,54.63
2023-02-21T11:23:08.562Z,55.86
2023-02-21T11:24:09.574Z,58.38
2023-02-21T11:25:08.907Z,52.91
2023-02-21T11:26:09.535Z,56.17
2023-02-21T11:27:09.516Z,50.99
2023-02-21T11:28:09.513Z,54.07
2023-02-21T11:29:09.507Z,55.52
2023-02-21T11:30:08.538Z,52.73
2023-02-21T11:31:08.565Z,57.38
2023-02-21T11:32:09.564Z,51.61
2023-02-21T11:33:09.505Z,52.28
2023-02-21T11:34:09.465Z,52.05
2023-02-21T11:35:09.472Z,57.86
2023-02-21T11:36:09.459Z,55.93
2023-02-21T11:37:09.453Z,54.27
2023-02-21T11:38:08.494Z,52.62
2023-02-21T11:39:09.428Z,53.07
2023-02-21T11:40:09.425Z,56.54
2023-02-21T11:41:08.484Z,57.97
2023-02-21T11:42:08.485Z,60.80
2023-02-21T11:43:09.768Z,55.21
2023-02-21T11:44:09.573Z,55.17
2023-02-21T11:45:08.597Z,51.05
2023-02-21T11:46:08.643Z,52.91
2023-02-21T11:47:09.650Z,50.37
2023-02-21T11:48:09.780Z,58.45
2023-02-21T11:49:09.729Z,58.68
2023-02-21T11:50:09.766Z,56.63
2023-02-21T11:51:08.828Z,56.64
2023-02-21T11:52:08.866Z,59.15
2023-02-21T11:53:09.909Z,60.72
2023-02-21T11:54:09.946Z,58.09
2023-02-21T11:55:09.974Z,59.02
2023-02-21T11:56:10.012Z,59.20
2023-02-21T11:57:10.083Z,60.37
2023-02-21T11:58:09.105Z,59.04
2023-02-21T11:59:09.162Z,61.27
2023-02-21T12:00:09.183Z,62.40
2023-02-21T12:01:10.181Z,60.00
2023-02-21T12:02:09.250Z,64.02
2023-02-21T12:03:09.251Z,64.82
2023-02-21T12:04:10.274Z,62.01
2023-02-21T12:05:10.322Z,60.92
2023-02-21T12:06:09.405Z,63.99
2023-02-21T12:07:10.418Z,64.79
2023-02-21T12:08:10.421Z,61.78
2023-02-21T12:09:10.471Z,62.89
2023-02-21T12:10:09.518Z,63.82
2023-02-21T12:11:10.533Z,64.74
2023-02-21T12:12:10.581Z,68.70
2023-02-21T12:13:09.623Z,64.13
2023-02-21T12:14:10.666Z,64.50
2023-02-21T12:15:09.686Z,62.56
2023-02-21T12:16:10.776Z,64.39
2023-02-21T12:17:10.749Z,62.81
2023-02-21T12:18:09.770Z,63.26
2023-02-21T12:19:10.785Z,62.05
2023-02-21T12:20:10.806Z,62.64
2023-02-21T12:21:09.841Z,63.06
2023-02-21T12:22:09.888Z,71.64
2023-02-21T12:23:10.889Z,63.57
2023-02-21T12:24:10.932Z,61.21
2023-02-21T12:25:09.969Z,60.12
2023-02-21T12:26:10.007Z,62.54
2023-02-21T12:27:09.996Z,64.15
2023-02-21T12:28:12.949Z,65.69
2023-02-21T12:29:10.983Z,64.32
2023-02-21T12:30:11.012Z,61.12
2023-02-21T12:31:10.033Z,56.41
2023-02-21T12:32:11.021Z,62.61
2023-02-21T12:33:10.963Z,62.40
2023-02-21T12:34:09.960Z,59.96
2023-02-21T12:35:10.956Z,57.49
2023-02-21T12:36:10.941Z,62.29
2023-02-21T12:37:10.969Z,60.01
2023-02-21T12:38:09.938Z,54.70
2023-02-21T12:39:10.939Z,60.58
2023-02-21T12:40:10.931Z,57.23
2023-02-21T12:41:10.921Z,62.11
2023-02-21T12:42:10.007Z,59.81
2023-02-21T12:43:10.897Z,62.67
2023-02-21T12:44:10.906Z,60.94
2023-02-21T12:45:10.894Z,60.49
2023-02-21T12:46:10.910Z,58.94
2023-02-21T12:47:10.888Z,58.16
2023-02-21T12:48:10.863Z,61.86
2023-02-21T12:49:10.860Z,59.73
2023-02-21T12:50:09.849Z,60.59
2023-02-21T12:51:10.856Z,60.63
2023-02-21T12:52:10.836Z,56.35
2023-02-21T12:53:09.837Z,54.54
2023-02-21T12:54:10.834Z,57.81
2023-02-21T12:55:09.837Z,56.69
2023-02-21T12:56:10.805Z,55.78
2023-02-21T12:57:10.831Z,61.25
2023-02-21T12:58:10.817Z,59.94
2023-02-21T12:59:10.788Z,62.88
2023-02-21T13:00:10.943Z,66.48
2023-02-21T13:01:10.802Z,59.49
2023-02-21T13:02:10.777Z,58.10
2023-02-21T13:03:10.828Z,61.57
2023-02-21T13:04:09.764Z,55.53
2023-02-21T13:05:10.764Z,62.90
2023-02-21T13:06:09.736Z,64.41
2023-02-21T13:07:10.727Z,66.92
2023-02-21T13:08:09.728Z,61.94
2023-02-21T13:09:10.724Z,61.02
2023-02-21T13:10:10.711Z,58.61
2023-02-21T13:11:10.692Z,65.09
2023-02-21T13:12:10.712Z,60.11
2023-02-21T13:13:10.731Z,68.37
2023-02-21T13:14:10.757Z,68.09
2023-02-21T13:15:10.774Z,62.10
2023-02-21T13:16:09.810Z,61.08
2023-02-21T13:17:10.781Z,59.22
2023-02-21T13:18:10.794Z,65.10
2023-02-21T13:19:09.803Z,69.63
2023-02-21T13:20:09.840Z,67.88
2023-02-21T13:21:10.832Z,69.45
2023-02-21T13:22:10.828Z,65.71
2023-02-21T13:23:10.849Z,63.83
2023-02-21T13:24:10.880Z,59.37
2023-02-21T13:25:10.883Z,65.60
2023-02-21T13:26:09.905Z,67.41
2023-02-21T13:27:09.904Z,68.79
2023-02-21T13:28:10.925Z,64.83
2023-02-21T13:29:10.922Z,63.67
2023-02-21T13:30:10.981Z,63.95
2023-02-21T13:31:11.059Z,61.38
2023-02-21T13:32:11.118Z,69.82
2023-02-21T13:33:10.943Z,65.30
2023-02-21T13:34:10.956Z,70.33
2023-02-21T13:35:10.959Z,62.18
2023-02-21T13:36:10.967Z,66.53
2023-02-21T13:37:10.970Z,59.72
2023-02-21T13:38:10.966Z,64.59
2023-02-21T13:39:10.027Z,62.09
2023-02-21T13:40:10.994Z,63.67
2023-02-21T13:41:10.013Z,63.07
2023-02-21T13:42:11.000Z,66.63
2023-02-21T13:43:11.038Z,59.27
2023-02-21T13:44:11.061Z,55.82
2023-02-21T13:45:11.055Z,66.03
2023-02-21T13:46:12.113Z,64.65
2023-02-21T13:47:11.115Z,63.03
2023-02-21T13:48:11.179Z,65.80
2023-02-21T13:49:11.212Z,65.07
2023-02-21T13:50:11.245Z,67.74
2023-02-21T13:51:10.263Z,69.19
2023-02-21T13:52:10.302Z,69.93
2023-02-21T13:53:10.335Z,59.82
2023-02-21T13:54:11.448Z,63.76
2023-02-21T13:55:10.428Z,63.98
2023-02-21T13:56:11.474Z,65.13
2023-02-21T13:57:11.521Z,68.22
2023-02-21T13:58:10.547Z,67.51
2023-02-21T13:59:10.611Z,64.83
2023-02-21T14:00:10.639Z,60.46
2023-02-21T14:01:11.653Z,61.46
2023-02-21T14:02:11.716Z,66.51
2023-02-21T14:03:11.713Z,62.87
2023-02-21T14:04:11.839Z,67.07
2023-02-21T14:05:11.837Z,66.35
2023-02-21T14:06:10.896Z,65.32
2023-02-21T14:07:11.951Z,62.14
2023-02-21T14:08:12.017Z,63.58
2023-02-21T14:09:12.121Z,58.14
2023-02-21T14:10:11.135Z,62.01
2023-02-21T14:11:11.192Z,64.52
2023-02-21T14:12:12.248Z,63.04
2023-02-21T14:13:11.327Z,64.52
2023-02-21T14:14:11.373Z,64.81
2023-02-21T14:15:12.455Z,68.34
2023-02-21T14:16:12.591Z,69.24
2023-02-21T14:17:11.550Z,68.99
2023-02-21T14:18:12.635Z,70.81
2023-02-21T14:19:12.718Z,69.14
2023-02-21T14:20:11.734Z,68.83
2023-02-21T14:21:13.226Z,71.09
2023-02-21T14:22:12.851Z,77.93
2023-02-21T14:23:12.914Z,77.01
2023-02-21T14:24:13.018Z,73.49
2023-02-21T14:25:12.396Z,75.46
2023-02-21T14:26:13.369Z,77.19
2023-02-21T14:27:12.207Z,78.43
2023-02-21T14:28:12.210Z,78.05
2023-02-21T14:29:12.329Z,79.30
2023-02-21T14:30:13.407Z,79.40
2023-02-21T14:31:13.724Z,80.91
2023-02-21T14:32:13.602Z,79.81
2023-02-21T14:33:14.361Z,78.78
2023-02-21T14:34:12.614Z,76.23
2023-02-21T14:35:13.638Z,77.18
2023-02-21T14:36:13.770Z,76.66
2023-02-21T14:37:13.751Z,77.41
2023-02-21T14:38:13.827Z,82.79
2023-02-21T14:39:13.873Z,76.40
2023-02-21T14:40:12.961Z,81.72
2023-02-21T14:41:13.088Z,77.85
2023-02-21T14:42:14.053Z,81.91
2023-02-21T14:43:13.126Z,78.90
2023-02-21T14:44:13.184Z,81.54
2023-02-21T14:45:14.289Z,77.77
2023-02-21T14:46:14.313Z,79.00
2023-02-21T14:47:14.346Z,82.87
2023-02-21T14:48:14.412Z,78.61
2023-02-21T14:49:13.468Z,82.39
2023-02-21T14:50:14.550Z,82.25
2023-02-21T14:51:13.952Z,76.93
2023-02-21T14:52:13.647Z,80.91
2023-02-21T14:53:14.732Z,77.91
2023-02-21T14:54:14.781Z,77.32
2023-02-21T14:55:14.831Z,83.28
2023-02-21T14:56:14.872Z,82.04
2023-02-21T14:57:14.940Z,87.59
2023-02-21T14:58:15.004Z,89.91
2023-02-21T14:59:15.064Z,81.57
2023-02-21T15:00:14.098Z,75.41
2023-02-21T15:01:15.493Z,82.39
2023-02-21T15:02:14.197Z,82.19
2023-02-21T15:03:14.247Z,76.36
2023-02-21T15:04:14.351Z,81.70
2023-02-21T15:05:14.292Z,87.20
2023-02-21T15:06:14.434Z,83.53
2023-02-21T15:07:15.326Z,86.92
2023-02-21T15:08:15.362Z,82.56
2023-02-21T15:09:15.409Z,87.90
2023-02-21T15:10:15.445Z,79.64
2023-02-21T15:11:15.748Z,79.21
2023-02-21T15:12:14.540Z,80.33
2023-02-21T15:13:15.609Z,77.20
2023-02-21T15:14:14.654Z,81.22
2023-02-21T15:15:14.692Z,80.99
2023-02-21T15:16:14.723Z,84.84
2023-02-21T15:17:14.729Z,87.36
2023-02-21T15:18:14.769Z,89.91
2023-02-21T15:19:15.796Z,88.12
2023-02-21T15:20:14.830Z,89.36
2023-02-21T15:21:15.110Z,84.97
2023-02-21T15:22:14.965Z,83.22
2023-02-21T15:23:14.985Z,79.91
2023-02-21T15:24:16.022Z,78.03
2023-02-21T15:25:15.073Z,87.04
2023-02-21T15:26:16.077Z,86.59
2023-02-21T15:27:16.095Z,85.34
2023-02-21T15:28:15.134Z,85.23
2023-02-21T15:29:16.158Z,89.23
2023-02-21T15:30:15.267Z,86.88
2023-02-21T15:31:16.619Z,84.91
2023-02-21T15:32:16.264Z,81.03
2023-02-21T15:33:16.305Z,79.83
2023-02-21T15:34:16.304Z,81.84
2023-02-21T15:35:16.322Z,81.93
2023-02-21T15:36:16.333Z,83.57
2023-02-21T15:37:16.339Z,81.40
2023-02-21T15:38:16.360Z,85.88
2023-02-21T15:39:16.348Z,85.03
2023-02-21T15:40:16.783Z,84.93
2023-02-21T15:41:15.686Z,93.26
2023-02-21T15:42:15.405Z,107.77
2023-02-21T15:43:16.422Z,108.58
2023-02-21T15:44:15.430Z,113.13
2023-02-21T15:45:15.495Z,124.70
2023-02-21T15:46:16.569Z,151.25
2023-02-21T15:47:16.501Z,154.23
2023-02-21T15:48:16.508Z,163.68
2023-02-21T15:49:16.538Z,185.90
2023-02-21T15:50:16.573Z,196.57
2023-02-21T15:51:16.853Z,214.52
2023-02-21T15:52:16.592Z,236.40
2023-02-21T15:53:16.619Z,243.25
2023-02-21T15:54:15.636Z,226.61
2023-02-21T15:55:16.671Z,237.38
2023-02-21T15:56:16.636Z,236.36
2023-02-21T15:57:16.655Z,236.69
2023-02-21T15:58:16.660Z,239.49
2023-02-21T15:59:15.695Z,236.63
2023-02-21T16:00:16.764Z,236.41
2023-02-21T16:01:16.042Z,248.89
2023-02-21T16:02:15.836Z,250.64
2023-02-21T16:03:15.767Z,242.54
2023-02-21T16:04:15.795Z,240.41
2023-02-21T16:05:15.818Z,249.45
2023-02-21T16:06:16.847Z,247.26
2023-02-21T16:07:16.855Z,248.33
2023-02-21T16:08:16.880Z,250.00
2023-02-21T16:09:16.910Z,239.14
2023-02-21T16:10:15.972Z,234.65
2023-02-21T16:11:17.333Z,240.95
2023-02-21T16:12:17.015Z,237.73
2023-02-21T16:13:16.064Z,241.53
2023-02-21T16:14:17.100Z,239.87
2023-02-21T16:15:16.131Z,233.52
2023-02-21T16:16:16.171Z,242.22
2023-02-21T16:17:16.210Z,244.41
2023-02-21T16:18:17.257Z,248.67
2023-02-21T16:19:16.303Z,246.68
2023-02-21T16:20:16.343Z,234.54
2023-02-21T16:21:17.597Z,229.36
2023-02-21T16:22:17.410Z,227.80
2023-02-21T16:23:17.460Z,223.36
2023-02-21T16:24:16.538Z,231.13
2023-02-21T16:25:17.567Z,224.61
2023-02-21T16:26:16.739Z,226.48
2023-02-21T16:27:16.689Z,225.19
2023-02-21T16:28:16.700Z,223.80
2023-02-21T16:29:16.775Z,226.77
